Time;durP1;ratioP1;P1;durP2;ratioP2;P2;SDS_P1;SDS_P2;PMS_P1;PMS_P2;Temp;Humidity;BMP_temperature;BMP_pressure;BME280_temperature;BME280_humidity;BME280_pressure;Samples;Min_cycle;Max_cycle;Signal;HPM_P1;HPM_P2
2022/10/04 00:02:25;;;;;;;0.82;0.82;;;;;;;14.33;100.00;100156.81;4993815;28;20208;-75
2022/10/04 00:05:00;;;;;;;0.80;0.80;;;;;;;14.24;100.00;100151.56;4992482;28;20198;-76
2022/10/04 00:07:29;;;;;;;0.82;0.82;;;;;;;14.22;100.00;100162.88;5017445;28;20200;-75
2022/10/04 00:09:59;;;;;;;0.85;0.85;;;;;;;14.24;100.00;100156.78;5032688;28;20200;-75
2022/10/04 00:12:31;;;;;;;0.80;0.80;;;;;;;14.20;100.00;100157.66;5029928;28;20636;-76
2022/10/04 00:15:00;;;;;;;0.75;0.75;;;;;;;14.27;100.00;100161.13;5027607;28;20200;-76
2022/10/04 00:17:30;;;;;;;0.70;0.70;;;;;;;14.10;100.00;100153.28;5043585;28;20206;-75
2022/10/04 00:19:57;;;;;;;0.80;0.80;;;;;;;14.20;100.00;100170.69;5085358;28;20186;-76
2022/10/04 00:22:26;;;;;;;0.77;0.77;;;;;;;14.25;100.00;100176.78;5085841;28;20214;-76
2022/10/04 00:25:17;;;;;;;0.80;0.80;;;;;;;14.28;100.00;100182.00;5066738;28;20215;-75
2022/10/04 00:28:20;;;;;;;0.75;0.75;;;;;;;14.18;100.00;100171.56;5085220;28;20221;-76
2022/10/04 00:31:08;;;;;;;0.80;0.80;;;;;;;14.04;100.00;100163.72;5085568;28;20221;-75
2022/10/04 00:33:36;;;;;;;0.75;0.75;;;;;;;14.04;100.00;100181.97;5085117;28;20206;-74
2022/10/04 00:36:46;;;;;;;0.80;0.80;;;;;;;14.13;100.00;100176.75;5088742;28;20237;-75
2022/10/04 00:39:49;;;;;;;0.80;0.80;;;;;;;14.17;100.00;100175.03;5084202;28;20290;-75
2022/10/04 00:42:41;;;;;;;0.80;0.80;;;;;;;14.23;100.00;100175.91;5085335;28;20200;-75
2022/10/04 00:45:28;;;;;;;0.80;0.80;;;;;;;14.11;100.00;100169.81;5084846;28;20658;-75
2022/10/04 00:48:10;;;;;;;0.90;0.90;;;;;;;14.04;100.00;100158.50;5084068;28;20198;-75
2022/10/04 00:50:40;;;;;;;0.80;0.80;;;;;;;14.04;100.00;100171.53;5063785;28;20214;-75
2022/10/04 00:53:18;;;;;;;0.70;0.70;;;;;;;14.02;100.00;100169.81;5084534;28;20214;-76
2022/10/04 00:55:51;;;;;;;0.80;0.80;;;;;;;13.99;100.00;100183.69;5085329;28;20274;-76
2022/10/04 00:58:22;;;;;;;0.80;0.80;;;;;;;13.90;100.00;100168.03;5084804;28;20209;-76
2022/10/04 01:00:52;;;;;;;0.70;0.70;;;;;;;14.01;100.00;100178.47;5084303;28;20206;-76
2022/10/04 01:03:27;;;;;;;0.73;0.73;;;;;;;14.03;100.00;100181.94;5065288;28;20209;-76
2022/10/04 01:05:59;;;;;;;0.82;0.82;;;;;;;13.83;100.00;100155.84;5086902;28;20283;-76
2022/10/04 01:08:31;;;;;;;0.70;0.70;;;;;;;13.94;100.00;100190.63;5086447;28;20263;-76
2022/10/04 01:11:02;;;;;;;0.80;0.80;;;;;;;13.82;100.00;100188.84;5085188;28;20630;-76
2022/10/04 01:13:35;;;;;;;0.80;0.80;;;;;;;13.80;100.00;100179.28;5084483;28;20289;-76
2022/10/04 01:16:06;;;;;;;0.70;0.70;;;;;;;13.85;100.00;100178.44;5084508;28;20207;-76
2022/10/04 01:18:36;;;;;;;1.15;1.15;;;;;;;13.83;100.00;100176.69;5084292;28;20289;-76
2022/10/04 01:21:05;;;;;;;0.73;0.73;;;;;;;13.79;100.00;100180.16;5084846;28;20231;-78
2022/10/04 01:23:40;;;;;;;0.70;0.70;;;;;;;13.76;100.00;100178.41;5085105;28;20211;-77
2022/10/04 01:26:38;;;;;;;0.70;0.70;;;;;;;13.63;100.00;100168.78;5083668;28;20194;-77
2022/10/04 01:29:09;;;;;;;0.70;0.70;;;;;;;13.72;100.00;100187.06;5084588;28;20198;-77
2022/10/04 01:31:37;;;;;;;0.70;0.70;;;;;;;13.61;100.00;100173.13;5085008;28;20299;-77
2022/10/04 01:34:05;;;;;;;1.80;1.70;;;;;;;13.64;100.00;100172.25;5083949;28;20206;-77
2022/10/04 01:36:34;;;;;;;0.80;0.80;;;;;;;13.48;100.00;100145.31;5089509;28;20194;-77
2022/10/04 01:39:03;;;;;;;0.70;0.70;;;;;;;13.68;100.00;100184.44;5089275;28;20221;-77
2022/10/04 01:41:38;;;;;;;0.60;0.60;;;;;;;13.64;100.00;100180.97;5084451;28;20213;-77
2022/10/04 01:44:09;;;;;;;0.70;0.70;;;;;;;13.72;100.00;100200.09;5083595;28;20725;-77
2022/10/04 01:46:39;;;;;;;0.70;0.70;;;;;;;13.64;100.00;100190.50;5083715;28;20206;-77
2022/10/04 01:49:10;;;;;;;0.70;0.70;;;;;;;13.60;100.00;100201.78;5085246;28;20201;-77
2022/10/04 01:51:43;;;;;;;0.80;0.80;;;;;;;13.52;100.00;100198.28;5084655;28;20237;-77
2022/10/04 01:54:15;;;;;;;0.77;0.77;;;;;;;13.56;100.00;100189.59;5084080;28;20302;-77
2022/10/04 01:56:47;;;;;;;0.80;0.80;;;;;;;13.38;100.00;100169.53;5083587;28;20663;-77
2022/10/04 01:59:19;;;;;;;0.88;0.88;;;;;;;13.31;100.00;100180.78;5084751;28;20662;-77
2022/10/04 02:01:50;;;;;;;1.00;1.00;;;;;;;13.48;100.00;100205.22;5083878;28;20311;-77
2022/10/04 02:04:19;;;;;;;0.60;0.60;;;;;;;13.11;100.00;100170.28;5083058;28;20197;-77
2022/10/04 02:06:52;;;;;;;0.80;0.80;;;;;;;13.21;100.00;100169.47;5084280;28;20665;-77
2022/10/04 02:09:24;;;;;;;0.90;0.90;;;;;;;13.36;100.00;100203.41;5084096;28;20205;-77
2022/10/04 02:11:53;;;;;;;0.70;0.70;;;;;;;13.29;100.00;100196.41;5065003;28;20225;-77
2022/10/04 02:14:24;;;;;;;0.70;0.70;;;;;;;13.04;100.00;100165.84;5083647;28;20202;-77
2022/10/04 02:16:52;;;;;;;0.80;0.80;;;;;;;13.44;100.00;100189.53;5065423;28;20201;-76
2022/10/04 02:19:21;;;;;;;1.00;1.00;;;;;;;13.30;100.00;100182.53;5083824;28;20202;-77
2022/10/04 02:21:49;;;;;;;0.90;0.90;;;;;;;13.49;100.00;100200.84;5084853;28;20201;-76
2022/10/04 02:24:17;;;;;;;0.70;0.70;;;;;;;12.92;100.00;100122.38;5083595;28;20194;-76
2022/10/04 02:26:51;;;;;;;0.80;0.80;;;;;;;13.40;100.00;100197.34;5083200;28;20231;-77
2022/10/04 02:29:19;;;;;;;0.80;0.80;;;;;;;13.34;100.00;100191.25;5083645;28;20206;-76
2022/10/04 02:34:33;;;;;;;0.82;0.82;;;;;;;13.29;100.00;100199.03;5083208;28;20213;-76
2022/10/04 02:37:02;;;;;;;0.75;0.75;;;;;;;13.14;100.00;100165.06;5085290;28;20293;-76
2022/10/04 02:39:34;;;;;;;0.90;0.90;;;;;;;13.39;100.00;100218.16;5090808;28;20693;-77
2022/10/04 02:42:09;;;;;;;0.90;0.90;;;;;;;13.34;100.00;100210.31;5067784;28;20728;-77
2022/10/04 02:44:42;;;;;;;0.90;0.90;;;;;;;13.31;100.00;100217.25;5068986;28;20197;-77
2022/10/04 02:47:14;;;;;;;0.90;0.90;;;;;;;13.31;100.00;100225.94;5086591;28;20202;-77
2022/10/04 02:49:46;;;;;;;0.98;0.98;;;;;;;13.20;100.00;100213.69;5089177;28;20209;-77
2022/10/04 02:52:18;;;;;;;0.80;0.80;;;;;;;13.25;100.00;100228.50;5087242;28;20230;-77
2022/10/04 02:54:50;;;;;;;0.90;0.90;;;;;;;13.08;100.00;100205.78;5092924;28;20209;-77
2022/10/04 02:57:21;;;;;;;0.80;0.80;;;;;;;13.11;100.00;100211.91;5094515;28;20202;-77
2022/10/04 02:59:49;;;;;;;1.08;1.08;;;;;;;13.06;100.00;100223.97;5055239;28;20651;-77
2022/10/04 03:02:25;;;;;;;0.90;0.90;;;;;;;13.16;100.00;100222.38;5074688;28;20199;-78
2022/10/04 03:04:54;;;;;;;1.15;1.05;;;;;;;13.19;100.00;100220.66;5074373;28;20711;-77
2022/10/04 03:07:22;;;;;;;0.85;0.85;;;;;;;12.76;100.00;100177.81;5073845;28;20678;-77
2022/10/04 03:09:49;;;;;;;0.80;0.80;;;;;;;13.09;100.00;100216.22;5088957;28;20213;-78
2022/10/04 03:12:17;;;;;;;0.80;0.80;;;;;;;12.52;100.00;100145.53;5087786;28;20221;-78
2022/10/04 03:14:44;;;;;;;0.70;0.70;;;;;;;12.83;100.00;100205.63;5086790;28;20206;-78
2022/10/04 03:17:14;;;;;;;0.60;0.60;;;;;;;13.27;100.00;100161.66;5067019;28;20440;-78
2022/10/04 03:19:42;;;;;;;0.70;0.70;;;;;;;13.55;100.00;100226.94;5087629;28;20197;-78
2022/10/04 03:22:11;;;;;;;1.33;1.33;;;;;;;13.46;100.00;100229.47;5051606;28;20210;-78
2022/10/04 03:24:45;;;;;;;0.80;0.80;;;;;;;13.31;100.00;100230.25;5089539;28;20346;-78
2022/10/04 03:27:16;;;;;;;0.80;0.80;;;;;;;13.31;100.00;100225.94;5088786;28;20189;-80
2022/10/04 03:29:45;;;;;;;0.80;0.80;;;;;;;13.22;100.00;100223.28;5086926;28;20202;-78
2022/10/04 03:32:15;;;;;;;0.90;0.90;;;;;;;13.25;100.00;100230.22;5087185;28;20233;-79
2022/10/04 03:34:51;;;;;;;0.82;0.82;;;;;;;13.19;100.00;100238.88;5050706;28;20317;-79
2022/10/04 03:37:20;;;;;;;0.80;0.80;;;;;;;13.07;100.00;100240.47;5087802;28;20198;-79
2022/10/04 03:39:49;;;;;;;1.10;1.00;;;;;;;13.09;100.00;100236.19;5055245;28;20687;-78
2022/10/04 03:42:18;;;;;;;0.77;0.77;;;;;;;13.09;100.00;100237.06;5068926;28;20209;-79
2022/10/04 03:44:49;;;;;;;0.90;0.90;;;;;;;13.01;100.00;100228.31;5086187;28;20591;-79
2022/10/04 03:47:21;;;;;;;0.68;0.68;;;;;;;13.19;100.00;100243.22;5061272;28;20202;-79
2022/10/04 03:49:49;;;;;;;0.80;0.80;;;;;;;13.12;100.00;100244.91;5069909;28;20261;-79
2022/10/04 03:52:21;;;;;;;0.88;0.88;;;;;;;12.98;100.00;100241.31;5085730;28;20284;-78
2022/10/04 03:54:51;;;;;;;0.80;0.80;;;;;;;12.80;100.00;100220.34;5066871;28;21626;-79
2022/10/04 03:57:18;;;;;;;0.90;0.90;;;;;;;12.94;100.00;100247.34;5086546;28;20585;-80
2022/10/04 03:59:47;;;;;;;0.80;0.80;;;;;;;12.95;100.00;100245.63;5085423;28;20217;-80
2022/10/04 04:02:23;;;;;;;0.75;0.75;;;;;;;12.91;100.00;100247.31;5085718;28;20572;-80
2022/10/04 04:04:59;;;;;;;0.80;0.80;;;;;;;12.94;100.00;100249.94;5086019;28;20194;-80
2022/10/04 04:07:34;;;;;;;0.80;0.80;;;;;;;12.97;100.00;100244.75;5090703;28;20202;-80
2022/10/04 04:10:05;;;;;;;0.93;0.93;;;;;;;12.88;100.00;100240.34;5084964;28;20189;-79
2022/10/04 04:12:40;;;;;;;0.90;0.90;;;;;;;12.97;100.00;100255.16;5086089;28;20250;-80
2022/10/04 04:15:12;;;;;;;0.80;0.80;;;;;;;13.00;100.00;100260.38;5085932;28;20197;-80
2022/10/04 04:17:41;;;;;;;0.70;0.70;;;;;;;12.96;100.00;100237.78;5085223;28;20205;-76
2022/10/04 04:20:18;;;;;;;0.80;0.80;;;;;;;13.03;100.00;100250.00;5085523;28;20214;-81
2022/10/04 04:22:59;;;;;;;0.80;0.80;;;;;;;13.07;100.00;100256.97;5085200;28;21437;-78
2022/10/04 04:25:28;;;;;;;0.70;0.70;;;;;;;12.97;100.00;100249.97;5085902;28;20206;-81
2022/10/04 04:28:02;;;;;;;0.80;0.80;;;;;;;12.99;100.00;100258.63;5085778;28;20218;-78
2022/10/04 04:30:31;;;;;;;1.13;1.00;;;;;;;12.88;100.00;100236.84;5057112;28;20187;-80
2022/10/04 04:33:09;;;;;;;0.77;0.77;;;;;;;12.99;100.00;100263.84;5084836;28;20214;-80
2022/10/04 04:35:36;;;;;;;4.88;1.25;;;;;;;12.86;100.00;100259.41;5086143;28;20233;-79
2022/10/04 04:38:06;;;;;;;2.45;1.10;;;;;;;12.92;100.00;100256.84;5084413;28;21453;-79
2022/10/04 04:40:34;;;;;;;0.95;0.90;;;;;;;12.92;100.00;100267.25;5085233;28;20206;-77
2022/10/04 04:43:02;;;;;;;1.48;1.00;;;;;;;13.04;100.00;100276.91;5084299;28;20289;-77
2022/10/04 04:45:33;;;;;;;3.38;1.30;;;;;;;13.14;100.00;100279.63;5084473;28;20205;-80
2022/10/04 04:48:02;;;;;;;0.90;0.90;;;;;;;13.22;100.00;100290.97;5085828;28;21407;-81
2022/10/04 04:50:32;;;;;;;0.90;0.90;;;;;;;13.15;100.00;100278.78;5086710;28;20233;-81
2022/10/04 04:53:05;;;;;;;2.55;1.15;;;;;;;13.00;100.00;100267.31;5083780;28;20230;-78
2022/10/04 04:55:36;;;;;;;1.73;1.10;;;;;;;13.26;100.00;100300.56;5085884;28;20757;-80
2022/10/04 04:58:05;;;;;;;0.88;0.88;;;;;;;13.27;100.00;100301.44;5087536;28;20198;-81
2022/10/04 05:00:37;;;;;;;2.00;1.10;;;;;;;13.15;100.00;100264.88;5084161;28;20205;-86
2022/10/04 05:03:07;;;;;;;0.90;0.90;;;;;;;13.38;100.00;100303.22;5091301;28;20229;-78
2022/10/04 05:05:34;;;;;;;1.95;1.38;;;;;;;13.18;100.00;100286.59;5091804;28;20200;-77
2022/10/04 05:08:13;;;;;;;1.13;1.00;;;;;;;13.40;100.00;100293.72;5091349;28;20217;-78
2022/10/04 05:10:42;;;;;;;1.50;0.93;;;;;;;13.31;100.00;100282.34;5090770;28;20208;-78
2022/10/04 05:13:11;;;;;;;0.90;0.90;;;;;;;13.44;100.00;100302.44;5077049;28;20660;-79
2022/10/04 05:15:42;;;;;;;1.85;1.10;;;;;;;13.45;100.00;100306.75;5082488;28;20202;-78
2022/10/04 05:18:27;;;;;;;0.80;0.80;;;;;;;13.67;100.00;100313.84;5091822;28;20198;-78
2022/10/04 05:20:55;;;;;;;0.70;0.70;;;;;;;13.65;100.00;100323.41;5079646;28;20205;-77
2022/10/04 05:23:22;;;;;;;0.77;0.77;;;;;;;13.78;100.00;100329.56;5092165;28;20206;-81
2022/10/04 05:25:50;;;;;;;0.90;0.90;;;;;;;13.51;100.00;100298.13;5077377;28;20201;-77
2022/10/04 05:28:18;;;;;;;0.85;0.85;;;;;;;13.80;100.00;100346.09;5055975;28;20211;-77
2022/10/04 05:30:58;;;;;;;0.80;0.80;;;;;;;13.87;100.00;100351.34;5092087;28;20314;-78
2022/10/04 05:33:36;;;;;;;0.80;0.80;;;;;;;13.84;100.00;100316.56;5092017;28;20225;-78
2022/10/04 05:36:27;;;;;;;1.38;1.00;;;;;;;14.13;100.00;100353.19;5091408;28;20202;-79
2022/10/04 05:39:02;;;;;;;0.80;0.80;;;;;;;14.18;100.00;100349.75;5005072;28;20204;-81
2022/10/04 05:41:34;;;;;;;0.70;0.70;;;;;;;14.11;100.00;100368.84;5009155;28;20212;-80
2022/10/04 05:44:02;;;;;;;0.80;0.80;;;;;;;13.99;100.00;100360.94;4995029;28;20602;-80
2022/10/04 05:46:33;;;;;;;0.80;0.80;;;;;;;14.12;100.00;100369.72;4977052;28;20219;-80
2022/10/04 05:49:05;;;;;;;0.93;0.90;;;;;;;14.21;100.00;100377.59;5008457;28;20207;-76
2022/10/04 05:51:36;;;;;;;0.70;0.70;;;;;;;14.25;100.00;100374.13;5008359;28;20232;-79
2022/10/04 05:54:04;;;;;;;0.90;0.90;;;;;;;14.19;100.00;100367.16;5008411;28;20257;-78
2022/10/04 05:56:53;;;;;;;1.27;0.93;;;;;;;14.33;100.00;100360.28;5008456;28;20212;-78
2022/10/04 05:59:37;;;;;;;0.73;0.73;;;;;;;14.37;100.00;100372.50;5008343;28;20200;-79
2022/10/04 06:02:18;;;;;;;0.82;0.82;;;;;;;14.31;100.00;100393.28;5008486;28;20213;-79
2022/10/04 06:04:55;;;;;;;0.80;0.80;;;;;;;14.56;100.00;100394.28;5008676;28;20744;-79
2022/10/04 06:07:29;;;;;;;0.70;0.70;;;;;;;14.62;100.00;100393.47;4997210;28;20303;-80
2022/10/04 06:10:29;;;;;;;0.70;0.70;;;;;;;14.69;100.00;100380.44;4988744;28;20229;-79
2022/10/04 06:13:02;;;;;;;0.70;0.70;;;;;;;14.72;100.00;100411.78;4952467;29;20234;-79
2022/10/04 06:15:45;;;;;;;2.85;1.42;;;;;;;14.91;100.00;100415.28;4965531;28;20683;-80
2022/10/04 06:18:31;;;;;;;0.73;0.73;;;;;;;14.78;100.00;100401.34;5012472;28;20205;-79
2022/10/04 06:21:16;;;;;;;0.80;0.80;;;;;;;15.20;100.00;100433.63;5012689;28;20201;-78
2022/10/04 06:23:49;;;;;;;1.92;1.17;;;;;;;15.25;100.00;100438.03;5012734;28;20709;-78
2022/10/04 06:26:23;;;;;;;0.80;0.80;;;;;;;15.19;100.00;100438.03;5012233;28;20672;-78
2022/10/04 06:28:56;;;;;;;0.60;0.60;;;;;;;15.22;100.00;100445.84;5012319;28;20231;-78
2022/10/04 06:32:03;;;;;;;0.77;0.77;;;;;;;15.31;100.00;100445.84;5012343;28;20196;-78
2022/10/04 06:34:54;;;;;;;0.70;0.70;;;;;;;15.32;100.00;100446.72;5012561;28;20220;-78
2022/10/04 06:37:48;;;;;;;0.70;0.70;;;;;;;15.51;100.00;100448.53;5012418;28;20192;-78
2022/10/04 06:40:56;;;;;;;0.75;0.75;;;;;;;15.64;100.00;100450.28;5012382;28;20201;-78
2022/10/04 06:43:41;;;;;;;0.90;0.90;;;;;;;15.77;100.00;100453.75;5011925;28;20208;-78
2022/10/04 06:46:15;;;;;;;0.70;0.70;;;;;;;15.77;100.00;100472.06;5012159;28;20205;-78
2022/10/04 06:49:19;;;;;;;0.75;0.75;;;;;;;15.74;100.00;100469.44;5012820;28;20215;-78
2022/10/04 06:52:16;;;;;;;0.80;0.80;;;;;;;15.68;100.00;100472.06;5073619;28;20231;-78
2022/10/04 06:54:59;;;;;;;0.68;0.68;;;;;;;15.80;100.00;100472.09;5070704;28;20202;-78
2022/10/04 06:57:49;;;;;;;0.70;0.70;;;;;;;15.55;100.00;100470.34;5073890;28;20199;-79
2022/10/04 07:00:20;;;;;;;1.02;0.90;;;;;;;15.62;100.00;100477.31;5038684;28;20200;-78
2022/10/04 07:02:52;;;;;;;0.60;0.60;;;;;;;15.63;100.00;100473.78;5074390;28;20606;-78
2022/10/04 07:05:29;;;;;;;0.75;0.75;;;;;;;15.78;100.00;100473.81;5074278;28;20218;-79
2022/10/04 07:08:07;;;;;;;0.80;0.80;;;;;;;15.90;100.00;100479.06;5038730;28;20202;-78
2022/10/04 07:10:39;;;;;;;1.13;0.90;;;;;;;15.71;100.00;100472.94;5073523;28;20685;-78
2022/10/04 07:13:16;;;;;;;3.33;1.30;;;;;;;15.88;100.00;100496.47;5075597;28;20734;-79
2022/10/04 07:15:49;;;;;;;1.98;1.02;;;;;;;15.79;100.00;100465.09;5073605;28;20229;-77
2022/10/04 07:18:25;;;;;;;1.65;1.15;;;;;;;15.94;100.00;100472.97;5079956;28;20217;-77
2022/10/04 07:21:00;;;;;;;0.77;0.77;;;;;;;16.14;100.00;100472.91;5093801;28;20198;-78
2022/10/04 07:23:35;;;;;;;0.73;0.73;;;;;;;16.29;100.00;100494.72;5093731;28;20210;-77
2022/10/04 07:26:06;;;;;;;0.70;0.70;;;;;;;15.97;100.00;100433.72;5093899;28;20661;-77
2022/10/04 07:31:27;;;;;;;0.80;0.80;;;;;;;16.69;100.00;100497.28;5083813;28;20201;-78
2022/10/04 07:33:56;;;;;;;1.05;0.90;;;;;;;16.78;100.00;100505.09;5095241;28;20225;-78
2022/10/04 07:36:29;;;;;;;0.68;0.68;;;;;;;16.83;99.24;100495.47;5094190;28;20684;-78
2022/10/04 07:39:01;;;;;;;0.80;0.80;;;;;;;17.17;98.99;100507.53;5093404;28;20202;-78
2022/10/04 07:41:34;;;;;;;0.68;0.68;;;;;;;17.26;94.13;100515.38;5057519;28;20197;-77
2022/10/04 07:44:07;;;;;;;0.60;0.60;;;;;;;17.63;90.66;100515.16;5093257;28;20204;-81
2022/10/04 07:46:52;;;;;;;0.70;0.70;;;;;;;17.91;87.86;100524.56;5093651;28;20190;-80
2022/10/04 07:49:22;;;;;;;0.93;0.80;;;;;;;18.18;85.37;100527.00;5057907;28;20276;-79
2022/10/04 07:52:05;;;;;;;0.80;0.80;;;;;;;18.22;84.87;100523.47;5093264;28;20237;-80
2022/10/04 07:54:39;;;;;;;0.70;0.70;;;;;;;18.34;84.91;100528.56;5093067;28;20760;-80
2022/10/04 07:57:15;;;;;;;0.75;0.75;;;;;;;18.13;82.07;100528.78;5093779;28;20190;-81
2022/10/04 07:59:51;;;;;;;0.90;0.80;;;;;;;18.31;81.78;100506.72;5093501;28;20225;-80
2022/10/04 08:02:31;;;;;;;0.70;0.70;;;;;;;18.40;80.84;100532.03;5093144;28;20202;-80
2022/10/04 08:05:11;;;;;;;3.38;1.35;;;;;;;18.62;80.87;100523.94;5092988;28;20202;-79
2022/10/04 08:07:51;;;;;;;0.80;0.80;;;;;;;18.78;79.13;100530.78;5092850;28;20674;-80
2022/10/04 08:10:30;;;;;;;0.73;0.73;;;;;;;18.99;78.80;100528.78;5093093;28;20194;-80
2022/10/04 08:13:05;;;;;;;1.23;0.90;;;;;;;19.05;79.02;100528.72;5092716;28;20228;-80
2022/10/04 08:15:37;;;;;;;0.98;0.85;;;;;;;18.96;77.13;100529.69;5092809;28;20716;-80
2022/10/04 08:18:42;;;;;;;0.80;0.80;;;;;;;18.79;76.99;100532.53;5092719;28;20198;-81
2022/10/04 08:21:15;;;;;;;0.65;0.65;;;;;;;18.71;79.62;100530.88;5050436;28;20199;-80
2022/10/04 08:23:59;;;;;;;0.73;0.73;;;;;;;18.95;77.78;100538.47;5050642;28;20199;-77
2022/10/04 08:26:57;;;;;;;0.80;0.80;;;;;;;18.68;76.91;100538.78;5049684;28;20211;-75
2022/10/04 08:29:47;;;;;;;0.77;0.77;;;;;;;18.37;78.84;100522.41;4990149;28;20205;-75
2022/10/04 08:32:27;;;;;;;0.88;0.88;;;;;;;18.31;81.19;100499.72;4990246;28;20685;-77
2022/10/04 08:35:18;;;;;;;0.80;0.80;;;;;;;18.58;78.17;100537.16;4989999;28;20237;-78
2022/10/04 08:37:54;;;;;;;0.77;0.77;;;;;;;18.72;75.86;100537.88;4913986;29;20681;-77
2022/10/04 08:41:01;;;;;;;0.70;0.70;;;;;;;18.84;73.42;100542.97;4914462;29;20577;-77
2022/10/04 08:44:09;;;;;;;0.70;0.70;;;;;;;18.88;73.91;100535.91;4876356;29;20210;-77
2022/10/04 08:47:27;;;;;;;1.42;0.93;;;;;;;18.73;74.48;100542.22;4875845;29;20262;-77
2022/10/04 08:50:20;;;;;;;0.80;0.80;;;;;;;18.78;71.63;100541.28;4857023;29;20338;-77
2022/10/04 08:53:01;;;;;;;1.00;0.90;;;;;;;18.44;78.97;100539.88;4802358;29;20211;-77
2022/10/04 08:55:52;;;;;;;0.80;0.80;;;;;;;18.32;80.34;100504.09;4802233;29;20705;-77
2022/10/04 08:58:51;;;;;;;0.80;0.80;;;;;;;18.43;78.05;100501.38;4839082;29;20214;-77
2022/10/04 09:01:31;;;;;;;0.82;0.82;;;;;;;18.47;73.72;100531.09;4839259;29;20716;-79
2022/10/04 09:04:39;;;;;;;0.82;0.80;;;;;;;18.32;76.50;100530.34;4795937;29;20675;-79
2022/10/04 09:07:35;;;;;;;1.00;0.90;;;;;;;18.43;78.27;100532.00;4867678;29;20211;-77
2022/10/04 09:10:35;;;;;;;1.77;1.02;;;;;;;18.64;76.55;100531.81;4874950;29;20210;-77
2022/10/04 09:13:16;;;;;;;1.08;0.90;;;;;;;18.68;76.19;100523.03;4856690;29;20296;-77
2022/10/04 09:15:55;;;;;;;2.42;1.10;;;;;;;18.79;72.41;100523.78;4885593;29;20356;-77
2022/10/04 09:18:46;;;;;;;1.60;1.00;;;;;;;18.42;66.50;100517.13;4900626;29;20678;-77
2022/10/04 09:21:26;;;;;;;1.88;1.08;;;;;;;18.95;64.88;100548.97;4950762;29;20258;-76
2022/10/04 09:24:38;;;;;;;1.38;0.93;;;;;;;18.76;65.04;100542.22;4950392;29;20266;-76
2022/10/04 09:27:24;;;;;;;0.70;0.70;;;;;;;18.86;67.53;100549.09;4902768;29;20249;-78
2022/10/04 09:30:12;;;;;;;0.90;0.90;;;;;;;18.96;66.08;100550.72;4921040;28;20201;-77
2022/10/04 09:32:57;;;;;;;8.63;6.22;;;;;;;19.14;66.78;100539.13;4970101;28;20253;-76
2022/10/04 09:35:50;;;;;;;0.80;0.80;;;;;;;19.58;65.15;100536.81;4969847;28;20206;-77
2022/10/04 09:38:44;;;;;;;0.70;0.70;;;;;;;19.66;62.30;100539.31;4969392;28;20210;-76
2022/10/04 09:41:36;;;;;;;0.80;0.80;;;;;;;19.63;60.76;100544.63;4922379;28;20297;-78
2022/10/04 09:44:45;;;;;;;0.80;0.80;;;;;;;19.74;59.61;100521.66;4893465;29;20205;-77
2022/10/04 09:47:36;;;;;;;0.85;0.77;;;;;;;19.55;57.36;100534.19;4880187;29;20335;-77
2022/10/04 09:50:53;;;;;;;0.90;0.88;;;;;;;19.63;55.34;100556.00;4890447;29;20337;-77
2022/10/04 09:53:43;;;;;;;0.80;0.80;;;;;;;19.62;55.61;100548.16;4874596;29;20209;-77
2022/10/04 09:56:52;;;;;;;0.70;0.70;;;;;;;19.47;54.38;100543.09;4861857;29;20241;-77
2022/10/04 09:59:51;;;;;;;0.70;0.70;;;;;;;19.30;59.50;100524.88;4893289;29;20248;-77
2022/10/04 10:02:55;;;;;;;2.08;1.10;;;;;;;19.50;55.62;100543.06;4892993;29;20752;-78
2022/10/04 10:05:55;;;;;;;0.88;0.88;;;;;;;19.66;55.03;100544.56;4874264;29;20223;-80
2022/10/04 10:08:30;;;;;;;0.98;0.70;;;;;;;19.73;54.25;100548.84;4830106;29;20873;-77
2022/10/04 10:14:27;;;;;;;1.55;1.00;;;;;;;20.27;53.17;100553.28;4856304;29;20371;-80
2022/10/04 10:17:08;;;;;;;1.30;0.93;;;;;;;20.04;52.32;100542.22;4819709;29;20215;-80
2022/10/04 10:20:08;;;;;;;1.52;1.05;;;;;;;20.12;52.59;100564.03;4806943;29;20220;-82
2022/10/04 10:23:07;;;;;;;1.20;0.93;;;;;;;19.86;50.81;100553.06;4824031;29;20212;-80
2022/10/04 10:25:47;;;;;;;0.70;0.70;;;;;;;19.75;50.59;100552.34;4761683;30;20216;-80
2022/10/04 10:28:42;;;;;;;0.60;0.60;;;;;;;19.27;50.46;100525.78;4834458;29;20207;-79
2022/10/04 10:31:31;;;;;;;0.60;0.60;;;;;;;19.69;50.78;100541.91;4822029;29;20206;-78
2022/10/04 10:34:21;;;;;;;1.08;0.90;;;;;;;19.90;51.12;100538.97;4825419;29;20604;-77
2022/10/04 10:37:05;;;;;;;0.75;0.75;;;;;;;20.18;50.55;100549.91;4893127;29;20204;-77
2022/10/04 10:40:03;;;;;;;0.80;0.80;;;;;;;20.45;50.08;100560.00;4892800;29;20208;-79
2022/10/04 10:42:48;;;;;;;1.45;0.90;;;;;;;20.62;50.81;100544.75;4893477;29;20649;-80
2022/10/04 10:45:39;;;;;;;0.80;0.80;;;;;;;20.86;49.67;100535.50;4911187;29;20254;-79
2022/10/04 10:48:14;;;;;;;0.90;0.90;;;;;;;21.44;48.55;100560.72;4931172;29;20199;-79
2022/10/04 10:51:00;;;;;;;0.80;0.80;;;;;;;21.67;46.76;100534.66;4930744;29;20761;-79
2022/10/04 10:54:00;;;;;;;1.30;0.90;;;;;;;21.98;46.84;100572.69;4946309;28;20272;-78
2022/10/04 10:56:36;;;;;;;1.48;0.93;;;;;;;21.83;46.66;100554.50;4959227;28;20205;-79
2022/10/04 10:59:37;;;;;;;1.95;1.00;;;;;;;21.42;47.45;100557.22;4984751;28;20250;-78
2022/10/04 11:02:29;;;;;;;1.85;1.00;;;;;;;21.84;46.14;100553.63;4985804;28;20211;-79
2022/10/04 11:05:23;;;;;;;0.60;0.60;;;;;;;21.64;46.02;100545.31;5073241;28;20256;-79
2022/10/04 11:07:54;;;;;;;0.57;0.57;;;;;;;21.62;47.10;100550.59;5070766;28;20228;-79
2022/10/04 11:10:53;;;;;;;0.70;0.70;;;;;;;21.49;44.45;100557.06;5073535;28;20229;-79
2022/10/04 11:13:45;;;;;;;0.70;0.70;;;;;;;21.93;43.79;100553.44;5030571;28;20195;-78
2022/10/04 11:16:46;;;;;;;1.33;0.90;;;;;;;22.07;44.68;100554.00;5030759;28;20215;-80
2022/10/04 11:19:46;;;;;;;0.90;0.90;;;;;;;21.96;44.60;100561.31;4972165;28;20194;-78
2022/10/04 11:22:44;;;;;;;1.10;0.90;;;;;;;22.02;44.57;100562.91;4940501;28;20199;-78
2022/10/04 11:25:28;;;;;;;1.25;1.00;;;;;;;22.13;45.22;100563.53;4980685;28;20680;-77
2022/10/04 11:28:05;;;;;;;0.90;0.90;;;;;;;22.31;44.68;100559.56;4971791;28;20595;-77
2022/10/04 11:31:01;;;;;;;1.17;0.90;;;;;;;21.90;45.32;100561.47;4971907;28;20689;-79
2022/10/04 11:34:10;;;;;;;1.73;1.00;;;;;;;21.34;46.52;100554.75;4945525;28;20296;-78
2022/10/04 11:36:50;;;;;;;0.80;0.80;;;;;;;21.30;46.67;100552.25;4971779;28;20702;-81
2022/10/04 11:39:36;;;;;;;0.70;0.70;;;;;;;21.47;47.46;100560.66;4971692;28;20217;-78
2022/10/04 11:42:18;;;;;;;0.75;0.75;;;;;;;21.18;46.19;100542.81;4972050;28;20210;-78
2022/10/04 11:45:26;;;;;;;0.75;0.75;;;;;;;21.13;45.81;100560.47;4939801;28;20297;-78
2022/10/04 11:48:06;;;;;;;1.02;0.70;;;;;;;21.09;46.14;100549.09;4971737;28;20202;-78
2022/10/04 11:50:46;;;;;;;0.70;0.70;;;;;;;20.90;46.48;100550.38;5006438;28;20267;-79
2022/10/04 11:53:38;;;;;;;0.70;0.70;;;;;;;20.72;46.39;100548.09;5029773;28;20202;-77
2022/10/04 11:56:20;;;;;;;0.60;0.60;;;;;;;20.73;47.18;100542.78;5048598;28;20231;-80
2022/10/04 11:59:07;;;;;;;0.60;0.60;;;;;;;20.57;46.05;100543.97;5072141;28;20206;-79
2022/10/04 12:02:01;;;;;;;0.80;0.80;;;;;;;20.53;45.31;100551.94;5092581;28;20202;-80
2022/10/04 12:05:12;;;;;;;0.70;0.70;;;;;;;20.67;44.78;100549.94;5092679;28;20292;-81
2022/10/04 12:07:49;;;;;;;0.80;0.80;;;;;;;20.61;46.03;100563.22;5092243;28;20202;-78
2022/10/04 12:10:26;;;;;;;0.70;0.70;;;;;;;20.20;46.29;100543.72;5092102;28;20229;-78
2022/10/04 12:13:28;;;;;;;0.80;0.80;;;;;;;19.34;47.25;100387.19;5092186;28;20729;-81
2022/10/04 12:16:42;;;;;;;0.80;0.80;;;;;;;20.63;47.52;100564.94;5092519;28;20636;-80
2022/10/04 12:23:03;;;;;;;0.80;0.80;;;;;;;20.45;47.23;100564.38;5028617;28;20219;-79
2022/10/04 12:26:00;;;;;;;0.73;0.73;;;;;;;20.38;47.58;100562.75;4986776;28;20943;-77
2022/10/04 12:29:02;;;;;;;1.80;1.00;;;;;;;20.87;47.78;100547.78;4909431;29;20250;-78
2022/10/04 12:31:34;;;;;;;0.80;0.80;;;;;;;21.17;48.28;100552.47;4912270;29;20242;-78